createdAt,value
2018-12-02T00:00:31.070Z,2.80
2018-12-02T00:03:00.101Z,2.40
2018-12-02T00:05:28.906Z,2.60
2018-12-02T00:07:57.174Z,2.40
2018-12-02T00:10:26.197Z,2.80
2018-12-02T00:12:54.426Z,2.60
2018-12-02T00:15:23.735Z,3.00
2018-12-02T00:17:54.138Z,2.60
2018-12-02T00:20:22.383Z,2.37
2018-12-02T00:22:50.695Z,2.80
2018-12-02T00:25:18.903Z,2.57
2018-12-02T00:27:51.350Z,2.50
2018-12-02T00:30:22.503Z,2.70
2018-12-02T00:32:50.775Z,2.50
2018-12-02T00:35:19.179Z,2.30
2018-12-02T00:37:48.782Z,2.50
2018-12-02T00:40:17.850Z,2.83
2018-12-02T00:42:51.003Z,2.40
2018-12-02T00:45:20.175Z,2.63
2018-12-02T00:47:48.507Z,2.70
2018-12-02T00:50:17.647Z,2.70
2018-12-02T00:52:47.323Z,2.57
2018-12-02T00:55:19.929Z,2.40
2018-12-02T00:57:48.433Z,2.10
2018-12-02T01:00:17.050Z,2.30
2018-12-02T01:02:47.231Z,1.93
2018-12-02T01:05:19.347Z,2.30
2018-12-02T01:07:47.608Z,2.30
2018-12-02T01:10:17.740Z,2.10
2018-12-02T01:12:46.639Z,2.00
2018-12-02T01:15:18.095Z,2.23
2018-12-02T01:17:46.352Z,2.07
2018-12-02T01:20:17.229Z,2.00
2018-12-02T01:22:45.535Z,1.90
2018-12-02T01:25:14.236Z,2.27
2018-12-02T01:27:42.857Z,2.10
2018-12-02T01:30:18.719Z,1.80
2018-12-02T01:32:47.090Z,2.10
2018-12-02T01:35:16.396Z,1.83
2018-12-02T01:37:44.755Z,2.23
2018-12-02T01:40:17.027Z,1.90
2018-12-02T01:42:45.295Z,1.87
2018-12-02T01:45:15.379Z,2.13
2018-12-02T01:47:43.652Z,1.87
2018-12-02T01:50:15.589Z,1.90
2018-12-02T01:52:44.851Z,1.57
2018-12-02T01:55:13.147Z,1.70
2018-12-02T01:57:41.403Z,1.67
2018-12-02T02:00:19.672Z,1.97
2018-12-02T02:02:47.996Z,1.90
2018-12-02T02:05:17.220Z,1.67
2018-12-02T02:07:45.468Z,1.80
2018-12-02T02:10:32.060Z,1.70
2018-12-02T02:13:00.300Z,1.67
2018-12-02T02:15:28.564Z,1.50
2018-12-02T02:17:56.828Z,1.70
2018-12-02T02:20:25.535Z,1.80
2018-12-02T02:22:53.764Z,1.87
2018-12-02T02:25:23.084Z,1.83
2018-12-02T02:27:53.880Z,1.87
2018-12-02T02:30:23.356Z,1.47
2018-12-02T02:32:51.560Z,2.10
2018-12-02T02:35:20.870Z,1.77
2018-12-02T02:37:50.301Z,1.53
2018-12-02T02:40:19.664Z,1.83
2018-12-02T02:42:47.900Z,1.80
2018-12-02T02:45:16.228Z,1.83
2018-12-02T02:47:44.588Z,2.00
2018-12-02T02:50:27.484Z,1.80
2018-12-02T02:52:59.694Z,1.60
2018-12-02T02:55:27.969Z,1.90
2018-12-02T02:57:56.431Z,1.60
2018-12-02T03:00:26.473Z,1.90
2018-12-02T03:02:54.725Z,1.90
2018-12-02T03:05:22.962Z,1.70
2018-12-02T03:07:51.209Z,1.80
2018-12-02T03:10:20.303Z,1.83
2018-12-02T03:12:52.821Z,1.90
2018-12-02T03:15:21.704Z,1.93
2018-12-02T03:17:49.950Z,1.83
2018-12-02T03:20:20.965Z,1.90
2018-12-02T03:22:56.485Z,2.17
2018-12-02T03:25:25.701Z,2.33
2018-12-02T03:27:54.312Z,2.33
2018-12-02T03:30:23.266Z,2.40
2018-12-02T03:32:51.607Z,2.27
2018-12-02T03:35:24.861Z,2.60
2018-12-02T03:37:53.979Z,2.50
2018-12-02T03:40:23.145Z,2.30
2018-12-02T03:42:51.762Z,2.30
2018-12-02T03:45:20.985Z,2.40
2018-12-02T03:47:49.212Z,2.60
2018-12-02T03:50:19.310Z,2.47
2018-12-02T03:52:47.613Z,2.60
2018-12-02T03:55:15.885Z,3.00
2018-12-02T03:57:44.120Z,2.80
2018-12-02T04:00:14.053Z,2.57
2018-12-02T04:02:42.326Z,2.40
2018-12-02T04:05:11.541Z,2.80
2018-12-02T04:07:39.774Z,2.50
2018-12-02T04:10:09.669Z,2.57
2018-12-02T04:12:37.907Z,2.43
2018-12-02T04:15:08.846Z,2.90
2018-12-02T04:17:37.099Z,2.60
2018-12-02T04:20:07.862Z,2.40
2018-12-02T04:22:36.195Z,2.67
2018-12-02T04:25:05.046Z,2.40
2018-12-02T04:27:33.282Z,2.80
2018-12-02T04:30:01.531Z,2.80
2018-12-02T04:32:29.880Z,2.50
2018-12-02T04:34:58.158Z,2.40
2018-12-02T04:37:26.410Z,2.50
2018-12-02T04:39:54.647Z,2.70
2018-12-02T04:42:22.882Z,2.30
2018-12-02T04:44:51.118Z,2.70
2018-12-02T04:47:19.359Z,2.60
2018-12-02T04:49:47.575Z,2.40
2018-12-02T04:52:15.862Z,2.80
2018-12-02T04:54:44.115Z,2.60
2018-12-02T04:57:12.351Z,2.60
2018-12-02T04:59:40.627Z,2.53
2018-12-02T05:02:08.864Z,2.67
2018-12-02T05:04:37.099Z,2.50
2018-12-02T05:07:05.442Z,2.70
2018-12-02T05:09:33.699Z,2.50
2018-12-02T05:12:01.955Z,2.47
2018-12-02T05:14:30.196Z,2.73
2018-12-02T05:16:58.453Z,2.50
2018-12-02T05:19:26.699Z,2.80
2018-12-02T05:21:54.955Z,2.53
2018-12-02T05:24:23.231Z,2.60
2018-12-02T05:26:51.466Z,2.20
2018-12-02T05:29:19.712Z,2.67
2018-12-02T05:31:47.955Z,2.77
2018-12-02T05:34:16.197Z,2.47
2018-12-02T05:36:44.439Z,2.60
2018-12-02T05:39:12.687Z,2.50
2018-12-02T05:41:46.236Z,2.50
2018-12-02T05:44:14.479Z,2.53
2018-12-02T05:46:42.711Z,2.43
2018-12-02T05:49:10.952Z,2.40
2018-12-02T05:51:39.239Z,2.50
2018-12-02T05:54:07.479Z,2.50
2018-12-02T05:56:35.739Z,2.53
2018-12-02T05:59:03.979Z,2.27
2018-12-02T06:01:32.223Z,2.30
2018-12-02T06:04:00.479Z,2.40
2018-12-02T06:06:28.743Z,2.10
2018-12-02T06:08:57.003Z,2.60
2018-12-02T06:11:25.264Z,2.50
2018-12-02T06:13:53.503Z,2.30
2018-12-02T06:16:21.740Z,2.40
2018-12-02T06:18:50.088Z,2.70
2018-12-02T06:21:18.408Z,2.50
2018-12-02T06:23:46.656Z,2.90
2018-12-02T06:26:14.952Z,2.40
2018-12-02T06:28:43.241Z,2.70
2018-12-02T06:31:11.531Z,2.67
2018-12-02T06:33:39.788Z,2.70
2018-12-02T06:36:08.068Z,2.80
2018-12-02T06:38:36.333Z,2.53
2018-12-02T06:41:04.748Z,2.60
2018-12-02T06:43:33.020Z,2.50
2018-12-02T06:46:02.055Z,2.53
2018-12-02T06:48:30.333Z,2.90
2018-12-02T06:50:58.557Z,2.63
2018-12-02T06:53:26.549Z,2.60
2018-12-02T06:56:20.887Z,2.83
2018-12-02T06:58:57.606Z,2.77
2018-12-02T07:01:36.322Z,2.50
2018-12-02T07:04:19.142Z,2.57
2018-12-02T07:06:47.415Z,2.63
2018-12-02T07:09:15.785Z,2.80
2018-12-02T07:11:44.033Z,2.77
2018-12-02T07:14:12.045Z,2.60
2018-12-02T07:16:40.034Z,2.60
2018-12-02T07:19:10.417Z,2.80
2018-12-02T07:21:40.650Z,2.70
2018-12-02T07:24:11.407Z,2.80
2018-12-02T07:26:41.615Z,2.70
2018-12-02T07:29:09.606Z,2.90
2018-12-02T07:31:37.586Z,2.80
2018-12-02T07:34:05.570Z,2.70
2018-12-02T07:36:33.538Z,3.00
2018-12-02T07:39:07.185Z,3.00
2018-12-02T07:41:35.174Z,3.37
2018-12-02T07:44:03.158Z,3.00
2018-12-02T07:46:31.155Z,2.70
2018-12-02T07:48:59.143Z,3.07
2018-12-02T07:51:27.126Z,2.50
2018-12-02T07:53:55.106Z,2.17
2018-12-02T07:56:23.331Z,2.90
2018-12-02T07:58:51.579Z,2.30
2018-12-02T08:01:19.821Z,2.37
2018-12-02T08:03:48.055Z,2.67
2018-12-02T08:06:16.324Z,2.70
2018-12-02T08:08:44.585Z,2.97
2018-12-02T08:11:12.883Z,3.27
2018-12-02T08:13:41.158Z,3.40
2018-12-02T08:16:09.425Z,2.90
2018-12-02T08:18:37.665Z,2.87
2018-12-02T08:21:05.909Z,3.40
2018-12-02T08:23:34.145Z,3.10
2018-12-02T08:26:02.417Z,3.37
2018-12-02T08:28:30.664Z,3.33
2018-12-02T08:30:58.917Z,3.27
2018-12-02T08:33:27.153Z,3.70
2018-12-02T08:35:55.429Z,3.47
2018-12-02T08:38:23.661Z,3.60
2018-12-02T08:40:51.886Z,3.60
2018-12-02T08:43:20.143Z,3.20
2018-12-02T08:45:48.393Z,3.50
2018-12-02T08:48:16.399Z,4.20
2018-12-02T08:50:44.658Z,3.60
2018-12-02T08:53:12.919Z,3.33
2018-12-02T08:55:41.202Z,3.50
2018-12-02T08:58:09.758Z,3.67
2018-12-02T09:00:38.064Z,3.13
2018-12-02T09:03:09.109Z,3.30
2018-12-02T09:05:37.359Z,4.50
2018-12-02T09:08:06.788Z,4.33
2018-12-02T09:10:35.032Z,4.67
2018-12-02T09:13:05.272Z,4.07
2018-12-02T09:15:33.555Z,3.60
2018-12-02T09:18:01.974Z,3.83
2018-12-02T09:20:32.572Z,3.40
2018-12-02T09:23:01.060Z,3.43
2018-12-02T09:25:29.344Z,3.30
2018-12-02T09:27:57.688Z,3.67
2018-12-02T09:30:28.240Z,3.33
2018-12-02T09:32:56.520Z,3.30
2018-12-02T09:35:24.496Z,3.00
2018-12-02T09:37:52.501Z,4.50
2018-12-02T09:40:20.500Z,4.10
2018-12-02T09:42:49.002Z,4.30
2018-12-02T09:45:17.530Z,4.43
2018-12-02T09:47:45.547Z,3.70
2018-12-02T09:50:14.139Z,4.07
2018-12-02T09:52:42.362Z,4.20
2018-12-02T09:55:13.999Z,4.30
2018-12-02T09:57:42.118Z,4.60
2018-12-02T10:00:13.286Z,5.07
2018-12-02T10:02:41.306Z,5.00
2018-12-02T10:05:09.346Z,5.53
2018-12-02T10:07:37.346Z,5.80
2018-12-02T10:10:22.825Z,6.20
2018-12-02T10:12:50.364Z,6.23
2018-12-02T10:15:18.370Z,6.90
2018-12-02T10:17:46.398Z,7.10
2018-12-02T10:20:14.885Z,8.07
2018-12-02T10:22:43.060Z,8.07
2018-12-02T10:25:13.343Z,9.03
2018-12-02T10:27:41.603Z,8.90
2018-12-02T10:30:12.278Z,9.30
2018-12-02T10:32:40.550Z,9.07
2018-12-02T10:35:08.821Z,9.00
2018-12-02T10:37:36.821Z,7.87
2018-12-02T10:40:07.058Z,8.17
2018-12-02T10:42:35.034Z,8.20
2018-12-02T10:45:03.085Z,7.90
2018-12-02T10:47:31.123Z,8.03
2018-12-02T10:49:59.110Z,8.70
2018-12-02T10:52:27.114Z,8.50
2018-12-02T10:54:56.174Z,9.00
2018-12-02T10:57:24.414Z,8.57
2018-12-02T10:59:52.801Z,9.70
2018-12-02T11:02:21.070Z,8.90
2018-12-02T11:04:49.342Z,8.97
2018-12-02T11:07:17.378Z,8.77
2018-12-02T11:09:45.413Z,8.93
2018-12-02T11:12:13.726Z,8.97
2018-12-02T11:14:42.014Z,9.97
2018-12-02T11:17:10.430Z,8.80
2018-12-02T11:19:38.726Z,9.67
2018-12-02T11:22:06.774Z,8.83
2018-12-02T11:24:34.778Z,9.07
2018-12-02T11:27:03.074Z,8.33
2018-12-02T11:29:31.314Z,8.80
2018-12-02T11:31:59.802Z,8.73
2018-12-02T11:34:28.918Z,8.20
2018-12-02T11:36:57.163Z,7.60
2018-12-02T11:39:25.403Z,6.97
2018-12-02T11:41:53.666Z,7.50
2018-12-02T11:44:21.971Z,6.70
2018-12-02T11:46:50.214Z,6.43
2018-12-02T11:49:18.459Z,5.97
2018-12-02T11:51:46.714Z,5.90
2018-12-02T11:54:14.955Z,6.30
2018-12-02T11:56:43.203Z,7.40
2018-12-02T11:59:11.462Z,6.37
2018-12-02T12:01:39.698Z,5.87
2018-12-02T12:04:07.699Z,6.40
2018-12-02T12:06:35.963Z,6.27
2018-12-02T12:09:06.151Z,6.67
2018-12-02T12:11:34.419Z,5.70
2018-12-02T12:14:02.755Z,5.83
2018-12-02T12:16:30.794Z,5.10
2018-12-02T12:18:59.105Z,5.50
2018-12-02T12:21:27.177Z,5.10
2018-12-02T12:23:55.482Z,4.87
2018-12-02T12:26:23.533Z,4.03
2018-12-02T12:28:51.585Z,3.93
2018-12-02T12:31:20.261Z,4.00
2018-12-02T12:33:48.363Z,4.17
2018-12-02T12:36:16.447Z,4.33
2018-12-02T12:38:44.509Z,4.50
2018-12-02T12:41:12.516Z,4.53
2018-12-02T12:43:40.908Z,3.93
2018-12-02T12:46:08.918Z,4.57
2018-12-02T12:48:37.200Z,4.30
2018-12-02T12:51:05.335Z,4.87
2018-12-02T12:53:33.318Z,4.23
2018-12-02T12:56:01.388Z,4.30
2018-12-02T12:58:29.404Z,4.00
2018-12-02T13:00:57.519Z,4.20
2018-12-02T13:03:25.542Z,4.50
2018-12-02T13:05:53.581Z,4.20
2018-12-02T13:08:21.595Z,4.50
2018-12-02T13:10:49.603Z,3.77
2018-12-02T13:13:17.772Z,4.00
2018-12-02T13:15:45.782Z,2.87
2018-12-02T13:18:13.783Z,3.60
2018-12-02T13:20:46.668Z,3.13
2018-12-02T13:23:14.688Z,3.53
2018-12-02T13:25:42.684Z,3.63
2018-12-02T13:28:10.680Z,3.60
2018-12-02T13:30:39.302Z,4.50
2018-12-02T13:33:07.853Z,4.27
2018-12-02T13:35:37.206Z,4.67
2018-12-02T13:38:05.705Z,5.30
2018-12-02T13:40:33.988Z,5.60
2018-12-02T13:43:06.702Z,6.27
2018-12-02T13:45:35.184Z,6.63
2018-12-02T13:48:03.460Z,6.53
2018-12-02T13:50:31.896Z,6.37
2018-12-02T13:53:00.157Z,5.17
2018-12-02T13:55:30.405Z,5.60
2018-12-02T13:57:59.688Z,6.10
2018-12-02T14:00:28.476Z,6.00
2018-12-02T14:03:01.929Z,5.83
2018-12-02T14:05:30.230Z,6.23
2018-12-02T14:07:58.492Z,6.47
2018-12-02T14:10:26.742Z,6.00
2018-12-02T14:12:56.228Z,6.70
2018-12-02T14:15:45.092Z,7.37
2018-12-02T14:18:48.221Z,6.50
2018-12-02T14:21:16.481Z,6.57
2018-12-02T14:23:44.961Z,6.03
2018-12-02T14:26:16.989Z,5.90
2018-12-02T14:28:47.809Z,5.60
2018-12-02T14:31:16.885Z,5.20
2018-12-02T14:33:45.125Z,5.20
2018-12-02T14:36:13.113Z,5.40
2018-12-02T14:38:41.390Z,5.93
2018-12-02T14:41:09.689Z,4.60
2018-12-02T14:43:37.673Z,4.40
2018-12-02T14:46:05.697Z,3.80
2018-12-02T14:48:33.685Z,3.53
2018-12-02T14:51:01.677Z,3.20
2018-12-02T14:53:29.710Z,2.80
2018-12-02T14:55:57.681Z,3.00
2018-12-02T14:58:25.674Z,2.90
2018-12-02T15:00:53.678Z,2.40
2018-12-02T15:03:21.669Z,2.40
2018-12-02T15:05:49.682Z,2.33
2018-12-02T15:08:17.658Z,2.37
2018-12-02T15:10:45.695Z,2.60
2018-12-02T15:13:13.718Z,2.80
2018-12-02T15:15:41.962Z,3.13
2018-12-02T15:18:10.246Z,3.33
2018-12-02T15:20:38.526Z,2.90
2018-12-02T15:23:07.151Z,3.23
2018-12-02T15:25:35.598Z,3.03
2018-12-02T15:28:03.863Z,3.40
2018-12-02T15:30:32.147Z,2.93
2018-12-02T15:33:00.403Z,2.87
2018-12-02T15:35:28.702Z,2.53
2018-12-02T15:37:56.958Z,2.40
2018-12-02T15:40:25.207Z,2.33
2018-12-02T15:42:53.995Z,2.07
2018-12-02T15:45:22.824Z,2.30
2018-12-02T15:47:51.115Z,2.10
2018-12-02T15:50:25.745Z,2.13
2018-12-02T15:52:54.004Z,2.50
2018-12-02T15:55:26.939Z,2.47
2018-12-02T15:57:55.295Z,2.50
2018-12-02T16:00:30.195Z,2.50
2018-12-02T16:02:58.444Z,2.40
2018-12-02T16:05:26.793Z,2.17
2018-12-02T16:07:55.052Z,2.30
2018-12-02T16:10:23.361Z,2.43
2018-12-02T16:12:52.930Z,2.57
2018-12-02T16:15:22.812Z,2.60
2018-12-02T16:17:52.205Z,2.50
2018-12-02T16:20:23.358Z,2.83
2018-12-02T16:22:51.700Z,2.93
2018-12-02T16:25:19.946Z,3.50
2018-12-02T16:27:48.763Z,3.20
2018-12-02T16:30:17.908Z,3.63
2018-12-02T16:32:48.107Z,3.73
2018-12-02T16:35:16.734Z,3.50
2018-12-02T16:37:46.228Z,3.97
2018-12-02T16:40:16.751Z,4.17
2018-12-02T16:42:45.020Z,4.00
2018-12-02T16:45:14.608Z,4.30
2018-12-02T16:47:45.868Z,4.30
2018-12-02T16:50:17.816Z,5.30
2018-12-02T16:52:46.129Z,5.47
2018-12-02T16:55:16.116Z,5.40
2018-12-02T16:57:46.660Z,5.10
2018-12-02T17:00:22.291Z,5.27
2018-12-02T17:02:50.569Z,6.03
2018-12-02T17:05:18.921Z,7.17
2018-12-02T17:07:47.223Z,6.83
2018-12-02T17:10:15.481Z,6.23
2018-12-02T17:12:43.733Z,5.87
2018-12-02T17:15:15.025Z,5.60
2018-12-02T17:17:43.289Z,5.67
2018-12-02T17:20:14.341Z,4.57
2018-12-02T17:22:42.837Z,4.80
2018-12-02T17:25:12.262Z,4.57
2018-12-02T17:27:41.309Z,5.10
2018-12-02T17:30:20.821Z,5.30
2018-12-02T17:32:49.051Z,5.33
2018-12-02T17:35:17.308Z,4.80
2018-12-02T17:37:45.561Z,4.43
2018-12-02T17:40:21.533Z,3.80
2018-12-02T17:42:49.872Z,4.13
2018-12-02T17:45:18.169Z,4.07
2018-12-02T17:47:46.515Z,3.30
2018-12-02T17:50:16.493Z,3.27
2018-12-02T17:52:46.645Z,4.00
2018-12-02T17:55:21.482Z,4.03
2018-12-02T17:57:49.881Z,3.80
2018-12-02T18:00:21.493Z,4.43
2018-12-02T18:02:49.774Z,4.57
2018-12-02T18:05:20.366Z,4.90
2018-12-02T18:07:48.606Z,4.70
2018-12-02T18:10:16.886Z,5.17
2018-12-02T18:12:45.150Z,5.13
2018-12-02T18:15:14.659Z,6.07
2018-12-02T18:17:43.105Z,5.80
2018-12-02T18:20:14.426Z,5.67
2018-12-02T18:22:42.870Z,6.63
2018-12-02T18:25:12.207Z,6.53
2018-12-02T18:27:40.530Z,6.87
2018-12-02T18:30:17.066Z,7.23
2018-12-02T18:32:45.398Z,6.27
2018-12-02T18:35:25.807Z,6.60
2018-12-02T18:37:56.563Z,7.27
2018-12-02T18:40:24.866Z,6.60
2018-12-02T18:42:53.114Z,6.03
2018-12-02T18:45:21.359Z,6.20
2018-12-02T18:47:49.622Z,6.00
2018-12-02T18:50:17.874Z,6.13
2018-12-02T18:52:46.149Z,5.43
2018-12-02T18:55:14.546Z,5.17
2018-12-02T18:57:42.838Z,5.90
2018-12-02T19:00:20.999Z,5.97
2018-12-02T19:02:51.362Z,5.43
2018-12-02T19:05:19.626Z,5.40
2018-12-02T19:07:47.891Z,5.83
2018-12-02T19:10:18.123Z,5.30
2018-12-02T19:12:46.398Z,5.77
2018-12-02T19:15:15.307Z,6.27
2018-12-02T19:17:44.182Z,6.80
2018-12-02T19:20:16.159Z,6.70
2018-12-02T19:22:45.174Z,6.03
2018-12-02T19:25:15.243Z,6.40
2018-12-02T19:27:43.510Z,7.00
2018-12-02T19:30:15.470Z,7.03
2018-12-02T19:32:44.043Z,6.20
2018-12-02T19:35:16.147Z,6.13
2018-12-02T19:37:46.067Z,6.30
2018-12-02T19:40:15.591Z,5.93
2018-12-02T19:42:43.862Z,5.63
2018-12-02T19:45:19.443Z,5.47
2018-12-02T19:47:47.679Z,5.47
2018-12-02T19:50:17.478Z,5.70
2018-12-02T19:52:45.986Z,5.80
2018-12-02T19:55:14.290Z,5.93
2018-12-02T19:57:44.426Z,6.63
2018-12-02T20:03:11.230Z,5.83
2018-12-02T20:05:39.778Z,6.30
2018-12-02T20:08:09.618Z,6.77
2018-12-02T20:10:38.090Z,6.33
2018-12-02T20:13:09.547Z,6.63
2018-12-02T20:15:42.123Z,6.20
2018-12-02T20:18:10.443Z,6.47
2018-12-02T20:20:44.035Z,8.13
2018-12-02T20:23:12.355Z,8.60
2018-12-02T20:25:40.606Z,9.20
2018-12-02T20:28:10.886Z,9.40
2018-12-02T20:30:39.422Z,9.47
2018-12-02T20:33:07.699Z,10.27
2018-12-02T20:35:35.955Z,10.17
2018-12-02T20:38:04.227Z,10.03
2018-12-02T20:40:32.508Z,10.43
2018-12-02T20:43:00.773Z,10.80
2018-12-02T20:45:29.059Z,10.37
2018-12-02T20:47:57.311Z,11.07
2018-12-02T20:50:25.579Z,10.23
2018-12-02T20:52:53.844Z,9.93
2018-12-02T20:58:03.683Z,9.63
2018-12-02T21:00:32.047Z,10.33
2018-12-02T21:03:11.419Z,10.10
2018-12-02T21:06:13.787Z,9.77
2018-12-02T21:08:42.298Z,10.87
2018-12-02T21:11:10.609Z,10.20
2018-12-02T21:13:38.868Z,11.00
2018-12-02T21:16:07.247Z,9.90
2018-12-02T21:18:35.502Z,10.97
2018-12-02T21:21:03.811Z,11.27
2018-12-02T21:23:32.067Z,11.90
2018-12-02T21:26:00.322Z,11.50
2018-12-02T21:28:28.563Z,10.97
2018-12-02T21:30:56.795Z,11.37
2018-12-02T21:33:25.087Z,11.03
2018-12-02T21:35:53.339Z,11.70
2018-12-02T21:38:21.591Z,11.03
2018-12-02T21:40:49.831Z,12.70
2018-12-02T21:43:18.107Z,12.97
2018-12-02T21:45:46.358Z,12.27
2018-12-02T21:48:16.623Z,12.93
2018-12-02T21:50:46.667Z,12.67
2018-12-02T21:53:14.924Z,13.53
2018-12-02T21:55:43.175Z,12.83
2018-12-02T21:58:11.423Z,12.90
2018-12-02T22:00:44.749Z,13.10
2018-12-02T22:03:14.151Z,13.30
2018-12-02T22:05:42.592Z,12.70
2018-12-02T22:08:10.862Z,13.77
2018-12-02T22:10:39.195Z,13.80
2018-12-02T22:13:07.500Z,12.93
2018-12-02T22:15:35.756Z,13.00
2018-12-02T22:18:04.027Z,13.07
2018-12-02T22:20:32.276Z,12.97
2018-12-02T22:23:00.536Z,12.80
2018-12-02T22:25:28.781Z,13.23
2018-12-02T22:27:57.849Z,12.87
2018-12-02T22:30:26.399Z,12.80
2018-12-02T22:32:54.636Z,12.50
2018-12-02T22:35:23.000Z,12.03
2018-12-02T22:37:51.412Z,11.90
2018-12-02T22:40:23.845Z,12.23
2018-12-02T22:42:53.235Z,11.83
2018-12-02T22:45:26.159Z,11.97
2018-12-02T22:47:54.504Z,11.83
2018-12-02T22:50:23.913Z,11.93
2018-12-02T22:52:54.427Z,11.83
2018-12-02T22:55:22.765Z,11.90
2018-12-02T22:57:51.116Z,11.33
2018-12-02T23:00:34.281Z,12.23
2018-12-02T23:03:04.008Z,12.20
2018-12-02T23:05:32.304Z,12.30
2018-12-02T23:08:01.731Z,11.97
2018-12-02T23:10:29.975Z,12.73
2018-12-02T23:12:58.240Z,13.23
2018-12-02T23:15:26.501Z,13.87
2018-12-02T23:17:54.731Z,13.57
2018-12-02T23:20:23.869Z,15.27
2018-12-02T23:22:52.111Z,13.97
2018-12-02T23:25:20.431Z,14.57
2018-12-02T23:27:48.723Z,14.67
2018-12-02T23:30:20.327Z,14.60
2018-12-02T23:32:48.635Z,14.17
2018-12-02T23:35:16.883Z,14.47
2018-12-02T23:37:45.132Z,14.80
2018-12-02T23:40:16.187Z,15.00
2018-12-02T23:42:44.508Z,14.27
2018-12-02T23:45:13.625Z,14.87
2018-12-02T23:47:41.935Z,13.13
2018-12-02T23:50:12.230Z,13.33
2018-12-02T23:52:40.480Z,12.30
2018-12-02T23:55:11.144Z,12.10
2018-12-02T23:57:39.501Z,12.57
